createdAt,value
2023-04-28T00:01:07.510Z,97608.91
2023-04-28T00:11:12.629Z,97608.34
2023-04-28T00:21:14.953Z,97601.06
2023-04-28T00:31:17.340Z,97609.78
2023-04-28T00:41:19.663Z,97598.09
2023-04-28T00:51:22.035Z,97580.00
2023-04-28T05:05:20.382Z,97468.94
2023-04-28T05:15:24.514Z,97450.44
2023-04-28T05:25:26.965Z,97439.44
2023-04-28T05:35:29.340Z,97442.84
2023-04-28T05:45:31.795Z,97428.53
2023-04-28T05:55:36.541Z,97414.22
2023-04-28T06:05:39.099Z,97397.91
2023-04-28T06:15:41.730Z,97395.63
2023-04-28T06:25:44.270Z,97388.91
2023-04-28T06:35:46.635Z,97380.78
2023-04-28T06:45:49.032Z,97371.06
2023-04-28T06:55:51.741Z,97367.56
2023-04-28T07:05:54.185Z,97358.06
2023-04-28T07:15:56.646Z,97341.09
2023-04-28T07:25:59.051Z,97333.59
2023-04-28T07:36:01.696Z,97312.69
2023-04-28T07:46:04.277Z,97303.28
2023-04-28T07:56:06.886Z,97284.59
2023-04-28T08:06:09.353Z,97276.22
2023-04-28T08:16:11.979Z,97264.66
2023-04-28T08:26:14.370Z,97260.78
2023-04-28T08:36:18.238Z,97253.53
2023-04-28T08:46:22.441Z,97255.50
2023-04-28T08:56:27.639Z,97249.69
2023-04-28T09:06:35.099Z,97250.84
2023-04-28T09:16:41.988Z,97214.47
2023-04-28T09:26:54.831Z,97219.50
2023-04-28T09:36:57.879Z,97206.34
2023-04-28T09:47:01.414Z,97202.53
2023-04-28T09:57:04.126Z,97177.34
2023-04-28T10:07:07.442Z,97178.16
2023-04-28T10:17:11.088Z,97185.72
2023-04-28T10:27:13.843Z,97174.59
2023-04-28T10:37:17.438Z,97148.44
2023-04-28T10:47:19.739Z,97138.09
2023-04-28T10:57:23.188Z,97140.00
2023-04-28T11:07:25.554Z,97117.44
2023-04-28T11:17:41.625Z,97130.13
2023-04-28T11:27:44.061Z,97131.59
2023-04-28T11:37:46.834Z,97119.75
2023-04-28T11:47:49.368Z,97119.63
2023-04-28T11:58:18.260Z,97113.28
2023-04-28T12:08:30.188Z,97113.63
2023-04-28T12:18:36.788Z,97099.59
2023-04-28T12:28:40.539Z,97085.34
2023-04-28T12:38:49.286Z,97079.38
2023-04-28T12:48:52.163Z,97069.59
2023-04-28T12:58:54.571Z,97056.00
2023-04-28T13:18:59.487Z,97058.66
2023-04-28T13:29:02.561Z,97054.44
2023-04-28T13:39:06.459Z,97058.09
2023-04-28T13:49:12.021Z,97039.59
2023-04-28T13:59:14.369Z,97039.53
2023-04-28T14:09:16.725Z,97037.16
2023-04-28T14:19:19.151Z,97028.25
2023-04-28T14:29:21.570Z,97026.97
2023-04-28T14:39:23.989Z,97019.09
2023-04-28T14:49:27.815Z,97020.50
2023-04-28T14:59:30.311Z,97022.84
2023-04-28T15:09:32.650Z,97020.56
2023-04-28T15:19:34.979Z,97024.75
2023-04-28T15:29:37.614Z,97011.16
2023-04-28T15:39:39.931Z,97024.34
2023-04-28T15:49:42.913Z,97009.97
2023-04-28T15:59:45.186Z,96991.72
2023-04-28T16:09:47.515Z,96985.03
2023-04-28T16:19:50.687Z,96994.84
2023-04-28T16:29:53.218Z,96993.88
2023-04-28T16:39:55.853Z,96968.75
2023-04-28T16:49:58.229Z,96965.09
2023-04-28T17:00:00.656Z,96957.88
2023-04-28T17:10:03.137Z,96961.75
2023-04-28T17:20:06.154Z,96950.31
2023-04-28T17:30:11.629Z,96942.72
2023-04-28T17:40:14.150Z,96943.53
2023-04-28T17:50:16.570Z,96940.53
2023-04-28T18:00:19.070Z,96942.50
2023-04-28T18:10:21.906Z,96942.78
2023-04-28T18:20:24.450Z,96940.03
2023-04-28T18:30:26.844Z,96930.38
2023-04-28T18:40:34.288Z,96939.19
2023-04-28T18:50:37.140Z,96930.13
2023-04-28T19:00:39.527Z,96922.53
2023-04-28T19:10:42.020Z,96922.97
2023-04-28T19:20:44.436Z,96911.28
2023-04-28T19:30:46.844Z,96894.00
2023-04-28T19:40:50.994Z,96901.94
2023-04-28T19:50:53.530Z,96889.13
2023-04-28T20:00:55.884Z,96885.22
2023-04-28T20:10:58.397Z,96892.03
2023-04-28T20:21:00.727Z,96896.22
2023-04-28T20:40:11.937Z,96890.44
2023-04-28T20:50:14.431Z,96915.63
2023-04-28T21:10:11.379Z,96877.56
2023-04-28T21:20:13.815Z,96880.50
2023-04-28T21:30:16.201Z,96874.78
2023-04-28T21:40:19.821Z,96868.47
2023-04-28T21:50:22.282Z,96872.50
2023-04-28T22:00:24.685Z,96866.09
2023-04-28T22:10:27.428Z,96874.50
2023-04-28T22:20:29.730Z,96866.41
2023-04-28T22:30:32.241Z,96860.28
2023-04-28T22:40:34.513Z,96849.97
2023-04-28T22:50:36.798Z,96851.56
2023-04-28T23:00:39.309Z,96839.56
2023-04-28T23:10:41.734Z,96827.00
2023-04-28T23:20:44.065Z,96811.56
2023-04-28T23:30:46.505Z,96802.81
2023-04-28T23:40:48.802Z,96791.47
2023-04-28T23:50:51.110Z,96781.25
